PWSweather.com
Personal Weather Stations
Station Observations
MARRWS
Allansford VictoriaAU 3277

Allansford VictoriaAU 3277

Lat: -38.4003683814149, Lon: 142.569826841354

Elevation: 36

Station Type: Fine Offset X7062

http://home.vicnet.net.au/~marr/Weather/

Latest ConditionsUpdated 1:20:03 PM GMT+10:10 Sunday, Aug 30, 2015
Currently Today's Max Today's Min Today's Average
Temperature 60.8°F16.0°C 62.2°F16.8°C 49.3°F9.6°C 50.6°F10.3°C
Dew Point 45.0°F7.2°C 45.9°F7.7°C 44.6°F7.0°C 45.1°F7.3°C
Winds 3.2 mph S5.1 kmh S 5.1 mph SE8.2 kmh SE - 3.3 mph 5.3 kmh
Wind Gusts 7.6 mph12.2 kmh 12.1 mph19.5 kmh - -
Humidity 56% 86% 54% 82%
Pressure 30.30 in1026.1 mb 30.38 in1028.8 mb 30.30 in1026.1 mb -
Precipitation - 0.04 in1.0 mm - -
Hour Temp Dew Point Humidity Winds Wind Gusts Pressure Precip Precip Rate Daily Precip Total
01:20 PM 60.8°F16.0°C 45.0°F7.2°C 56% 3.2 mph S5.1 kmh S 7.6 mph12.2 kmh 30.30 in1026.1 mb 0.04 in1.0 mm 0.00 in0.0 mm 0.04 in1.0 mm
01:16 PM 62.2°F16.8°C 45.4°F7.4°C 54% 3.1 mph SE5.0 kmh SE 7.6 mph12.2 kmh 30.30 in1026.1 mb 0.04 in1.0 mm 0.18 in4.6 mm 0.04 in1.0 mm
12:03 PM 50.0°F10.0°C 44.7°F7.1°C 82% 3.6 mph SE5.8 kmh SE 9.2 mph14.8 kmh 30.38 in1028.8 mb 0.00 in0.0 mm 0.00 in0.0 mm 0.00 in0.0 mm
10:53 AM 50.0°F10.0°C 44.7°F7.1°C 82% 3.6 mph SE5.8 kmh SE 9.2 mph14.8 kmh 30.38 in1028.8 mb 0.00 in0.0 mm 0.00 in0.0 mm 0.00 in0.0 mm
05:00 AM 49.8°F9.9°C 45.2°F7.3°C 84% 2.8 mph SSE4.5 kmh SSE 8.3 mph13.4 kmh 30.34 in1027.4 mb 0.00 in0.0 mm 0.00 in0.0 mm 0.00 in0.0 mm
04:50 AM 50.0°F10.0°C 44.7°F7.1°C 82% 3.1 mph SE5.0 kmh SE 8.3 mph13.4 kmh 30.34 in1027.4 mb 0.00 in0.0 mm 0.00 in0.0 mm 0.00 in0.0 mm
04:40 AM 49.8°F9.9°C 45.2°F7.3°C 84% 2.9 mph SE4.7 kmh SE 6.9 mph11.1 kmh 30.34 in1027.4 mb 0.00 in0.0 mm 0.00 in0.0 mm 0.00 in0.0 mm
04:30 AM 49.8°F9.9°C 45.2°F7.3°C 84% 4.4 mph SSE7.1 kmh SSE 10.7 mph17.2 kmh 30.34 in1027.4 mb 0.00 in0.0 mm 0.00 in0.0 mm 0.00 in0.0 mm
04:20 AM 50.0°F10.0°C 45.0°F7.2°C 83% 1.7 mph SE2.7 kmh SE 6.9 mph11.1 kmh 30.34 in1027.4 mb 0.00 in0.0 mm 0.00 in0.0 mm 0.00 in0.0 mm
04:10 AM 50.2°F10.1°C 45.2°F7.3°C 83% 2.0 mph SE3.2 kmh SE 7.6 mph12.2 kmh 30.34 in1027.4 mb 0.00 in0.0 mm 0.00 in0.0 mm 0.00 in0.0 mm
04:00 AM 50.0°F10.0°C 44.7°F7.1°C 82% 3.1 mph SSE5.0 kmh SSE 7.6 mph12.2 kmh 30.34 in1027.4 mb 0.00 in0.0 mm 0.00 in0.0 mm 0.00 in0.0 mm
03:50 AM 50.0°F10.0°C 44.7°F7.1°C 82% 3.2 mph SSE5.1 kmh SSE 6.9 mph11.1 kmh 30.34 in1027.4 mb 0.00 in0.0 mm 0.00 in0.0 mm 0.00 in0.0 mm
03:40 AM 50.2°F10.1°C 44.6°F7.0°C 81% 3.8 mph SE6.1 kmh SE 9.2 mph14.8 kmh 30.34 in1027.4 mb 0.00 in0.0 mm 0.00 in0.0 mm 0.00 in0.0 mm
03:30 AM 50.0°F10.0°C 44.7°F7.1°C 82% 2.3 mph SE3.7 kmh SE 6.9 mph11.1 kmh 30.35 in1027.8 mb 0.00 in0.0 mm 0.00 in0.0 mm 0.00 in0.0 mm
03:20 AM 49.8°F9.9°C 44.9°F7.2°C 83% 2.3 mph SE3.7 kmh SE 6.9 mph11.1 kmh 30.35 in1027.8 mb 0.00 in0.0 mm 0.00 in0.0 mm 0.00 in0.0 mm
03:10 AM 49.8°F9.9°C 45.2°F7.3°C 84% 3.5 mph SE5.6 kmh SE 9.8 mph15.8 kmh 30.35 in1027.8 mb 0.00 in0.0 mm 0.00 in0.0 mm 0.00 in0.0 mm
03:00 AM 49.8°F9.9°C 45.5°F7.5°C 85% 4.3 mph S6.9 kmh S 12.1 mph19.5 kmh 30.35 in1027.8 mb 0.00 in0.0 mm 0.00 in0.0 mm 0.00 in0.0 mm
02:50 AM 50.2°F10.1°C 45.9°F7.7°C 85% 3.5 mph SE5.6 kmh SE 10.7 mph17.2 kmh 30.35 in1027.8 mb 0.00 in0.0 mm 0.00 in0.0 mm 0.00 in0.0 mm
02:40 AM 49.6°F9.8°C 45.6°F7.6°C 86% 2.8 mph SSE4.5 kmh SSE 9.2 mph14.8 kmh 30.36 in1028.1 mb 0.00 in0.0 mm 0.00 in0.0 mm 0.00 in0.0 mm
02:30 AM 49.6°F9.8°C 45.6°F7.6°C 86% 1.6 mph SSE2.6 kmh SSE 5.4 mph8.7 kmh 30.36 in1028.1 mb 0.00 in0.0 mm 0.00 in0.0 mm 0.00 in0.0 mm
02:20 AM 49.6°F9.8°C 45.3°F7.4°C 85% 3.3 mph SE5.3 kmh SE 9.2 mph14.8 kmh 30.37 in1028.4 mb 0.00 in0.0 mm 0.00 in0.0 mm 0.00 in0.0 mm
02:10 AM 50.2°F10.1°C 45.2°F7.3°C 83% 5.0 mph SE8.0 kmh SE 10.7 mph17.2 kmh 30.37 in1028.4 mb 0.00 in0.0 mm 0.00 in0.0 mm 0.00 in0.0 mm
02:00 AM 50.0°F10.0°C 44.7°F7.1°C 82% 3.2 mph SSE5.1 kmh SSE 6.9 mph11.1 kmh 30.37 in1028.4 mb 0.00 in0.0 mm 0.00 in0.0 mm 0.00 in0.0 mm
01:50 AM 50.0°F10.0°C 45.4°F7.4°C 84% 3.6 mph SE5.8 kmh SE 8.3 mph13.4 kmh 30.37 in1028.4 mb 0.00 in0.0 mm 0.00 in0.0 mm 0.00 in0.0 mm
01:40 AM 49.5°F9.7°C 45.1°F7.3°C 85% 2.9 mph SSE4.7 kmh SSE 8.3 mph13.4 kmh 30.38 in1028.8 mb 0.00 in0.0 mm 0.00 in0.0 mm 0.00 in0.0 mm
01:30 AM 49.3°F9.6°C 45.3°F7.4°C 86% 2.3 mph SSE3.7 kmh SSE 6.9 mph11.1 kmh 30.37 in1028.4 mb 0.00 in0.0 mm 0.00 in0.0 mm 0.00 in0.0 mm
01:20 AM 49.3°F9.6°C 45.0°F7.2°C 85% 1.3 mph SE2.1 kmh SE 4.5 mph7.2 kmh 30.38 in1028.8 mb 0.00 in0.0 mm 0.00 in0.0 mm 0.00 in0.0 mm
01:10 AM 50.0°F10.0°C 45.4°F7.4°C 84% 5.0 mph SSE8.0 kmh SSE 11.4 mph18.3 kmh 30.38 in1028.8 mb 0.00 in0.0 mm 0.00 in0.0 mm 0.00 in0.0 mm
01:00 AM 50.2°F10.1°C 45.5°F7.5°C 84% 3.5 mph SE5.6 kmh SE 12.1 mph19.5 kmh 30.38 in1028.8 mb 0.00 in0.0 mm 0.00 in0.0 mm 0.00 in0.0 mm
12:50 AM 50.2°F10.1°C 45.5°F7.5°C 84% 4.6 mph SE7.4 kmh SE 11.4 mph18.3 kmh 30.38 in1028.8 mb 0.00 in0.0 mm 0.00 in0.0 mm 0.00 in0.0 mm
12:40 AM 50.5°F10.3°C 45.9°F7.7°C 84% 4.6 mph SE7.4 kmh SE 12.1 mph19.5 kmh 30.37 in1028.4 mb 0.00 in0.0 mm 0.00 in0.0 mm 0.00 in0.0 mm
12:30 AM 50.2°F10.1°C 45.2°F7.3°C 83% 4.5 mph SSE7.2 kmh SSE 9.2 mph14.8 kmh 30.37 in1028.4 mb 0.00 in0.0 mm 0.00 in0.0 mm 0.00 in0.0 mm
12:20 AM 50.5°F10.3°C 45.3°F7.4°C 82% 5.1 mph SE8.2 kmh SE 10.7 mph17.2 kmh 30.37 in1028.4 mb 0.00 in0.0 mm 0.00 in0.0 mm 0.00 in0.0 mm
12:10 AM 50.2°F10.1°C 44.6°F7.0°C 81% 3.8 mph SE6.1 kmh SE 8.3 mph13.4 kmh 30.37 in1028.4 mb 0.00 in0.0 mm 0.00 in0.0 mm 0.00 in0.0 mm
12:00 AM 50.2°F10.1°C 44.9°F7.2°C 82% 3.4 mph SE5.5 kmh SE 9.2 mph14.8 kmh 30.37 in1028.4 mb 0.00 in0.0 mm 0.00 in0.0 mm 0.00 in0.0 mm